Alpine, TX

9:45 PM CDT on July 04, 2015 (GMT -0500)
Thomas, Ave. A & N. Cockrell | | Change Station
CLOSE
Current Station
Personal Weather Station
Location: Alpine, TX
Elevation: 4485 ft
Nearby Weather Stations

Elev 4485 ft 30.36 °N, 103.66 °W | Updated 11 seconds ago

Clear
Clear
73.4 °F
Feels Like 75 °F
N
0.2
Wind Variable Wind from SW
Gusts 2.5 mph

Today
High -- | Low -- °F
--% Chance of Precip.
Yesterday
High -- | Low -- °F
Precip. -- in
6:57 AM 9:00 PM
Waning Gibbous, 88% visible
Pressure 30.13 in
Visibility 10.0 miles
Clouds Clear
Heat Index 75 °F
Dew Point 65 °F
Humidity 74%
Rainfall 0.05 in
Snow Depth Not available.
UV 0.0 out of 12
Pollen 4.20 out of 12
Air Quality Not available.
Flu Activity Not available.
METAR KE38 050235Z AUTO 18007KT 10SM CLR 24/17 A3013 RMK AO2 T02350170

More Conditions Fewer Conditions

Pressure 30.13 in
Visibility 10.0 miles
Clouds Clear
Heat Index 75 °F
Dew Point 65 °F
Humidity 74%
Rainfall 0.05 in
Snow Depth Not available.
UV 0.0 out of 12
Pollen 4.20 out of 12
Air Quality Not available.
Flu Activity Not available.
METAR KE38 050235Z AUTO 18007KT 10SM CLR 24/17 A3013 RMK AO2 T02350170

More Conditions Fewer Conditions

10-Day Weather Forecast

×

Almanac

Astronomy

Jul. 04, 2015 Rise Set
Actual Time
Civil Twilight
Nautical Twilight
Astronomical Twilight
Moon
Length of Visible Light
Length of Day
Tomorrow will be .
, % of the Moon is Illuminated

Today's Extremes

State Highs State Lows

Community

WunderPhotos

Upload Photos

1,835,172 photos uploaded!

WunderBlogs® & News

Nearby

Air Quality

  Air Quality AQ Index Pollutant
Not available.

Snow Depth

Station Depth Elevation

Earthquake Activity

City Distance Mag. Time & Date
Minimum magnitude displayed is 2.5.

Coastal Water Temperatures

Place Temperature

Stations

Nearby Weather Stations

Station Location Temp. Windchill Dew Point Humidity Wind Precip. Elev Updated Type